Norse Mersey — IBEN — position and weather

sailwx.info

Track history (hours):
 
Tides and Currents Weather Stations Pressure Air Temp Water Temp Dewpoint Dewpoint Depression Visibility Wind Speed Wind Dir Waves Ship Positions

Norse Mersey

Operator: Norse Merchant Ferries

Last reported at 2017-Aug-23 13:30 UTC. Time now 2017-Aug-23 13:43 UTC.
Position N 39°12' E 009°07'.

Length 175 m; draft 5.6 m.

Type: Ship (hazmat cat A). MMSI: 247026000.

Date/timePositionNaut miles runAvg speedWind from/ knotsBaromVisibWave heightAir tempDewpointWater temp
2017-Aug-23 13:30N 39°12' E 009°07'4 7.8
2017-Aug-23 12:59N 39°09' E 009°09'815.6
2017-Aug-23 12:29N 39°05' E 009°18'13213.5
2017-Aug-23 02:43N 41°14' E 009°55'415.8
2017-Aug-23 02:29N 41°17' E 009°55'1715.7
2017-Aug-23 01:23N 41°35' E 009°54'1816.2
2017-Aug-23 00:16N 41°53' E 009°54'715.7
2017-Aug-22 23:49N 41°60' E 009°55'515.8
2017-Aug-22 23:30N 42°05' E 009°55'815.8
2017-Aug-22 23:00N 42°13' E 009°54'915.8
2017-Aug-22 22:26N 42°22' E 009°54'715.6
2017-Aug-22 22:00N 42°28' E 009°55'916.0
2017-Aug-22 21:28N 42°37' E 009°55'716.0
2017-Aug-22 21:00N 42°44' E 009°55'816.1
2017-Aug-22 20:30N 42°52' E 009°58'815.9
2017-Aug-22 20:00N 42°60' E 010°00'815.8
2017-Aug-22 19:30N 43°08' E 010°03'815.9
2017-Aug-22 19:00N 43°15' E 010°06'815.7
2017-Aug-22 18:30N 43°23' E 010°08'815.8
2017-Aug-22 18:00N 43°30' E 010°11'5 9.9
2017-Aug-22 17:31N 43°33' E 010°17'3 4.7
2017-Aug-22 16:59N 43°35' E 010°19'0 0.1
2017-Aug-22 16:29N 43°35' E 010°19'0 0.0
2017-Aug-22 15:59N 43°35' E 010°19'0 0.0
2017-Aug-22 15:26N 43°35' E 010°19'0 0.0
2017-Aug-22 14:47N 43°35' E 010°19'0 0.0
2017-Aug-22 14:29N 43°35' E 010°19'0 0.0
2017-Aug-22 13:56N 43°35' E 010°19'0 0.0
2017-Aug-22 13:29N 43°35' E 010°19'0 0.0
2017-Aug-22 12:59N 43°35' E 010°19'0 0.0
2017-Aug-22 12:26N 43°35' E 010°19'0 0.0
2017-Aug-22 11:59N 43°35' E 010°19'0 0.0
2017-Aug-22 11:26N 43°35' E 010°19'0 0.0
2017-Aug-22 11:00N 43°35' E 010°19'1 1.8
2017-Aug-22 10:30N 43°34' E 010°18'4 7.0
2017-Aug-22 10:00N 43°31' E 010°15'4 8.6
2017-Aug-22 09:30N 43°30' E 010°10'4 8.7
2017-Aug-22 09:01N 43°30' E 010°04'612.9
2017-Aug-22 08:30N 43°31' E 009°55'713.4
2017-Aug-22 08:00N 43°35' E 009°48'713.4
2017-Aug-22 07:30N 43°40' E 009°41'713.6
2017-Aug-22 07:00N 43°45' E 009°35'713.5
2017-Aug-22 06:30N 43°50' E 009°29'713.2
2017-Aug-22 06:00N 43°55' E 009°23'612.8
2017-Aug-22 05:30N 43°60' E 009°18'613.0
2017-Aug-22 05:00N 44°05' E 009°12'713.2
2017-Aug-22 04:30N 44°10' E 009°07'713.2
2017-Aug-22 04:00N 44°16' E 009°02'713.2
2017-Aug-22 03:30N 44°22' E 008°57'3 6.9
2017-Aug-22 03:00N 44°24' E 008°54'0 0.8
2017-Aug-22 02:27N 44°24' E 008°53'0 0.0
2017-Aug-22 01:57N 44°24' E 008°53'0 0.0
2017-Aug-22 01:27N 44°24' E 008°53'0 0.0
2017-Aug-22 00:57N 44°24' E 008°53'0 0.0
2017-Aug-22 00:30N 44°24' E 008°53'0 0.0
2017-Aug-22 00:00N 44°24' E 008°53'0 0.0
2017-Aug-21 23:30N 44°24' E 008°53'0 0.0
2017-Aug-21 23:00N 44°24' E 008°53'0 0.0
2017-Aug-21 22:30N 44°24' E 008°53'0 0.0
2017-Aug-21 22:00N 44°24' E 008°53'0 0.0
2017-Aug-21 21:30N 44°24' E 008°53'0 0.0
2017-Aug-21 21:00N 44°24' E 008°53'0 0.0
2017-Aug-21 20:30N 44°24' E 008°53'0 0.0
2017-Aug-21 20:00N 44°24' E 008°53'0 0.0
2017-Aug-21 19:30N 44°24' E 008°53'0 0.0
2017-Aug-21 19:00N 44°24' E 008°53'0 0.0
2017-Aug-21 18:27N 44°24' E 008°53'0 0.0
2017-Aug-21 17:57N 44°24' E 008°53'0 0.0
2017-Aug-21 17:24N 44°24' E 008°53'0 0.0
2017-Aug-21 16:57N 44°24' E 008°53'0 0.0
2017-Aug-21 16:24N 44°24' E 008°53'0 0.0
2017-Aug-21 16:00N 44°24' E 008°53'0 0.0
2017-Aug-21 15:27N 44°24' E 008°53'0 0.0
2017-Aug-21 14:57N 44°24' E 008°53'0 0.0
2017-Aug-21 14:27N 44°24' E 008°53'0 0.0
2017-Aug-21 13:57N 44°24' E 008°53'0 0.0
2017-Aug-21 13:27N 44°24' E 008°53'0 0.0
2017-Aug-21 12:57N 44°24' E 008°53'0 0.0
2017-Aug-21 12:27N 44°24' E 008°53'0 0.0
2017-Aug-21 11:57N 44°24' E 008°53'0 0.0
2017-Aug-21 11:27N 44°24' E 008°53'0 0.0
2017-Aug-21 11:00N 44°24' E 008°53'0 0.0
2017-Aug-21 10:30N 44°24' E 008°53'0 0.0
2017-Aug-21 10:00N 44°24' E 008°53'0 0.0
2017-Aug-21 09:30N 44°24' E 008°53'0 0.0
2017-Aug-21 09:00N 44°24' E 008°53'0 0.0
2017-Aug-21 08:30N 44°24' E 008°53'0 0.0
2017-Aug-21 08:00N 44°24' E 008°53'0 0.0
2017-Aug-21 07:30N 44°24' E 008°53'0 0.0
2017-Aug-21 07:00N 44°24' E 008°53'0 0.4
2017-Aug-21 06:30N 44°24' E 008°53'0 0.0
2017-Aug-21 06:00N 44°24' E 008°53'0 0.0
2017-Aug-21 05:30N 44°24' E 008°53'0 0.0
2017-Aug-21 05:00N 44°24' E 008°53'0 0.0
2017-Aug-21 04:30N 44°24' E 008°53'0 0.0
2017-Aug-21 04:00N 44°24' E 008°53'0 0.0
2017-Aug-21 03:30N 44°24' E 008°53'0 0.0
2017-Aug-21 02:54N 44°24' E 008°53'0 0.0
2017-Aug-21 02:30N 44°24' E 008°53'0 0.0
2017-Aug-21 01:54N 44°24' E 008°53'0 0.0
2017-Aug-21 01:30N 44°24' E 008°53'0 0.0
2017-Aug-21 01:00N 44°24' E 008°53'0 0.0
2017-Aug-21 00:30N 44°24' E 008°53'0 0.0
2017-Aug-21 00:00N 44°24' E 008°53'0 0.0
2017-Aug-20 23:27N 44°24' E 008°53'0 0.0
2017-Aug-20 23:00N 44°24' E 008°53'0 0.0
2017-Aug-20 22:30N 44°24' E 008°53'0 0.0
2017-Aug-20 21:57N 44°24' E 008°53'0 0.0
2017-Aug-20 21:30N 44°24' E 008°53'0 0.0
2017-Aug-20 21:00N 44°24' E 008°53'0 0.0
2017-Aug-20 20:30N 44°24' E 008°53'0 0.0
2017-Aug-20 20:00N 44°24' E 008°53'0 0.0
2017-Aug-20 19:30N 44°24' E 008°53'0 0.0
2017-Aug-20 19:00N 44°24' E 008°53'0 0.0
2017-Aug-20 18:30N 44°24' E 008°53'0 0.0
2017-Aug-20 18:00N 44°24' E 008°53'0 0.0
2017-Aug-20 17:30N 44°24' E 008°53'0 0.0
2017-Aug-20 17:00N 44°24' E 008°53'0 0.0
2017-Aug-20 16:30N 44°24' E 008°53'0 0.0
2017-Aug-20 16:00N 44°24' E 008°53'0 0.0
2017-Aug-20 15:30N 44°24' E 008°53'0 0.0
2017-Aug-20 15:00N 44°24' E 008°53'0 0.0
2017-Aug-20 14:30N 44°24' E 008°53'0 0.0
2017-Aug-20 14:00N 44°24' E 008°53'0 0.0
2017-Aug-20 13:30N 44°24' E 008°53'0 0.0
2017-Aug-20 13:00N 44°24' E 008°53'0 0.0
2017-Aug-20 12:30N 44°24' E 008°53'0 0.0
2017-Aug-20 12:00N 44°24' E 008°53'0 0.0
2017-Aug-20 11:30N 44°24' E 008°53'0 0.0
2017-Aug-20 11:00N 44°24' E 008°53'0 0.0
2017-Aug-20 10:30N 44°24' E 008°53'0 0.0
2017-Aug-20 10:00N 44°24' E 008°53'0 0.0
2017-Aug-20 09:30N 44°24' E 008°53'0 0.0
2017-Aug-20 09:00N 44°24' E 008°53'0 0.0
2017-Aug-20 08:27N 44°24' E 008°53'0 0.0
2017-Aug-20 08:00N 44°24' E 008°53'0 0.0
2017-Aug-20 07:27N 44°24' E 008°53'0 0.0
2017-Aug-20 07:00N 44°24' E 008°53'0 0.0
2017-Aug-20 06:30N 44°24' E 008°53'0 0.0
2017-Aug-20 06:00N 44°24' E 008°53'0 0.0
2017-Aug-20 05:30N 44°24' E 008°53'0 0.0
2017-Aug-20 05:00N 44°24' E 008°53'0 0.0
2017-Aug-20 04:30N 44°24' E 008°53'0 0.0
2017-Aug-20 04:00N 44°24' E 008°53'0 0.0
2017-Aug-20 03:27N 44°24' E 008°53'0 0.0
2017-Aug-20 03:00N 44°24' E 008°53'0 0.0
2017-Aug-20 02:30N 44°24' E 008°53'0 0.0
2017-Aug-20 02:00N 44°24' E 008°53'0 0.0
2017-Aug-20 01:30N 44°24' E 008°53'0 0.0
2017-Aug-20 01:00N 44°24' E 008°53'0 0.0
2017-Aug-20 00:30N 44°24' E 008°53'0 0.0
2017-Aug-19 23:57N 44°24' E 008°53'0 0.0
2017-Aug-19 23:30N 44°24' E 008°53'0 0.0
2017-Aug-19 22:57N 44°24' E 008°53'0 0.0
2017-Aug-19 22:24N 44°24' E 008°53'0 0.0
2017-Aug-19 22:00N 44°24' E 008°53'0 0.0
2017-Aug-19 21:27N 44°24' E 008°53'0 0.0
2017-Aug-19 21:00N 44°24' E 008°53'0 0.0
2017-Aug-19 20:27N 44°24' E 008°53'0 0.0
2017-Aug-19 20:00N 44°24' E 008°53'0 0.0
2017-Aug-19 19:30N 44°24' E 008°53'0 0.0
2017-Aug-19 18:57N 44°24' E 008°53'0 0.0
2017-Aug-19 18:30N 44°24' E 008°53'0 0.0
2017-Aug-19 17:57N 44°24' E 008°53'0 0.0
2017-Aug-19 17:27N 44°24' E 008°53'0 0.0
2017-Aug-19 17:00N 44°24' E 008°53'0 0.0
2017-Aug-19 16:30N 44°24' E 008°53'0 0.0
2017-Aug-19 16:00N 44°24' E 008°53'0 0.0
2017-Aug-19 15:30N 44°24' E 008°53'0 0.0
2017-Aug-19 15:00N 44°24' E 008°53'0 0.0
2017-Aug-19 14:00N 44°24' E 008°53'0 0.0
2017-Aug-19 13:30N 44°24' E 008°53'0 0.0
2017-Aug-19 13:00N 44°24' E 008°53'0 0.0
2017-Aug-19 12:30N 44°24' E 008°53'0 0.0
2017-Aug-19 12:00N 44°24' E 008°53'0 0.0
2017-Aug-19 11:30N 44°24' E 008°53'0 0.0
2017-Aug-19 11:00N 44°24' E 008°53'0 0.0
2017-Aug-19 10:30N 44°24' E 008°53'0 0.0
2017-Aug-19 10:00N 44°24' E 008°53'0 0.0
2017-Aug-19 09:27N 44°24' E 008°53'0 0.0
2017-Aug-19 08:54N 44°24' E 008°53'0 0.0
2017-Aug-19 08:27N 44°24' E 008°53'0 0.0
2017-Aug-19 08:00N 44°24' E 008°53'0 0.0
2017-Aug-19 07:30N 44°24' E 008°53'0 0.0
2017-Aug-19 06:57N 44°24' E 008°53'0 0.0
2017-Aug-19 06:30N 44°24' E 008°53'0 0.0
2017-Aug-19 05:57N 44°24' E 008°53'0 0.0
2017-Aug-19 05:27N 44°24' E 008°53'0 0.0
2017-Aug-19 04:57N 44°24' E 008°53'0 0.0
2017-Aug-19 04:27N 44°24' E 008°53'0 0.0
2017-Aug-19 04:00N 44°24' E 008°53'0 0.0
2017-Aug-19 03:27N 44°24' E 008°53'0 0.0
2017-Aug-19 03:00N 44°24' E 008°53'0 0.0
2017-Aug-19 02:30N 44°24' E 008°53'0 0.0
2017-Aug-19 02:00N 44°24' E 008°53'0 0.0
2017-Aug-19 01:30N 44°24' E 008°53'0 0.0
2017-Aug-19 00:57N 44°24' E 008°53'0 0.0
2017-Aug-19 00:30N 44°24' E 008°53'0 0.0
2017-Aug-19 00:00N 44°24' E 008°53'0 0.0
2017-Aug-18 23:30N 44°24' E 008°53'0 0.0
2017-Aug-18 23:00N 44°24' E 008°53'0 0.0
2017-Aug-18 22:24N 44°24' E 008°53'0 0.0
2017-Aug-18 22:00N 44°24' E 008°53'0 0.0
2017-Aug-18 21:30N 44°24' E 008°53'0 0.0
2017-Aug-18 21:00N 44°24' E 008°53'0 0.0
2017-Aug-18 20:30N 44°24' E 008°53'0 0.0
2017-Aug-18 20:00N 44°24' E 008°53'0 0.0
2017-Aug-18 19:30N 44°24' E 008°53'0 0.0
2017-Aug-18 19:00N 44°24' E 008°53'0 0.0
2017-Aug-18 18:30N 44°24' E 008°53'0 0.0
2017-Aug-18 18:00N 44°24' E 008°53'0 0.0
2017-Aug-18 17:30N 44°24' E 008°53'0 0.0
2017-Aug-18 17:00N 44°24' E 008°53'0 0.0
2017-Aug-18 16:30N 44°24' E 008°53'0 0.0
2017-Aug-18 16:00N 44°24' E 008°53'0 0.0
2017-Aug-18 15:27N 44°24' E 008°53'0 0.0
2017-Aug-18 15:00N 44°24' E 008°53'0 0.0
2017-Aug-18 14:27N 44°24' E 008°53'0 0.0
2017-Aug-18 13:30N 44°24' E 008°53'0 0.0
2017-Aug-18 13:00N 44°24' E 008°53'0 0.0
2017-Aug-18 12:30N 44°24' E 008°53'0 0.0
2017-Aug-18 11:57N 44°24' E 008°53'0 0.0
2017-Aug-18 11:30N 44°24' E 008°53'0 0.0
2017-Aug-18 11:00N 44°24' E 008°53'0 0.0
2017-Aug-18 10:30N 44°24' E 008°53'0 0.0
2017-Aug-18 10:00N 44°24' E 008°53'0 0.0
2017-Aug-18 09:30N 44°24' E 008°53'0 0.0
2017-Aug-18 09:00N 44°24' E 008°53'0 0.0
2017-Aug-18 08:30N 44°24' E 008°53'0 0.0
2017-Aug-18 08:00N 44°24' E 008°53'0 0.0
2017-Aug-18 07:30N 44°24' E 008°53'0 0.0
2017-Aug-18 07:00N 44°24' E 008°53'0 0.0
2017-Aug-18 06:30N 44°24' E 008°53'0 0.0
2017-Aug-18 06:00N 44°24' E 008°53'0 0.0
2017-Aug-18 05:27N 44°24' E 008°53'0 0.0
2017-Aug-18 05:00N 44°24' E 008°53'0 0.0
2017-Aug-18 04:27N 44°24' E 008°53'0 0.0
2017-Aug-18 04:00N 44°24' E 008°53'0 0.0
2017-Aug-18 03:30N 44°24' E 008°53'0 0.0
2017-Aug-18 03:00N 44°24' E 008°53'0 0.0
2017-Aug-18 02:27N 44°24' E 008°53'0 0.0
2017-Aug-18 02:00N 44°24' E 008°53'0 0.0
2017-Aug-18 01:30N 44°24' E 008°53'0 0.0
2017-Aug-18 01:00N 44°24' E 008°53'0 0.0
2017-Aug-18 00:30N 44°24' E 008°53'0 0.0
2017-Aug-17 23:57N 44°24' E 008°53'0 0.0
2017-Aug-17 23:30N 44°24' E 008°53'0 0.0
2017-Aug-17 23:00N 44°24' E 008°53'0 0.0
2017-Aug-17 22:30N 44°24' E 008°53'0 0.0
2017-Aug-17 22:00N 44°24' E 008°53'0 0.0
2017-Aug-17 21:30N 44°24' E 008°53'0 0.0
2017-Aug-17 21:00N 44°24' E 008°53'0 0.0
2017-Aug-17 20:30N 44°24' E 008°53'0 0.0
2017-Aug-17 20:00N 44°24' E 008°53'0 0.0
2017-Aug-17 19:30N 44°24' E 008°53'0 0.0
2017-Aug-17 19:00N 44°24' E 008°53'0 0.0
2017-Aug-17 18:30N 44°24' E 008°53'0 0.0
2017-Aug-17 18:00N 44°24' E 008°53'0 0.0
2017-Aug-17 17:30N 44°24' E 008°53'0 0.0
2017-Aug-17 17:00N 44°24' E 008°53'0 0.0
2017-Aug-17 16:30N 44°24' E 008°53'0 0.0
2017-Aug-17 16:00N 44°24' E 008°53'0 0.0
2017-Aug-17 15:30N 44°24' E 008°53'0 0.0
2017-Aug-17 15:00N 44°24' E 008°53'0 0.0
2017-Aug-17 14:30N 44°24' E 008°53'0 0.0
2017-Aug-17 14:00N 44°24' E 008°53'0 0.0
2017-Aug-17 13:30N 44°24' E 008°53'0 0.0
2017-Aug-17 12:57N 44°24' E 008°53'0 0.0
2017-Aug-17 12:30N 44°24' E 008°53'0 0.0
2017-Aug-17 12:00N 44°24' E 008°53'0 0.0
2017-Aug-17 11:30N 44°24' E 008°53'0 0.0
2017-Aug-17 11:00N 44°24' E 008°53'0 0.0
2017-Aug-17 10:27N 44°24' E 008°53'0 0.0
2017-Aug-17 10:00N 44°24' E 008°53'0 0.0
2017-Aug-17 09:30N 44°24' E 008°53'0 0.0
2017-Aug-17 08:57N 44°24' E 008°53'0 0.0
2017-Aug-17 08:30N 44°24' E 008°53'0 0.0
2017-Aug-17 08:00N 44°24' E 008°53'0 0.0
2017-Aug-17 07:30N 44°24' E 008°53'0 0.0
2017-Aug-17 07:00N 44°24' E 008°53'0 0.0
2017-Aug-17 06:30N 44°24' E 008°53'0 0.0
2017-Aug-17 06:00N 44°24' E 008°53'0 0.0
2017-Aug-17 05:30N 44°24' E 008°53'0 0.0
2017-Aug-17 05:00N 44°24' E 008°53'0 0.0
2017-Aug-17 04:30N 44°24' E 008°53'0 0.0
2017-Aug-17 04:00N 44°24' E 008°53'0 0.0
2017-Aug-17 03:30N 44°24' E 008°53'0 0.0
2017-Aug-17 03:00N 44°24' E 008°53'0 0.0
2017-Aug-17 02:30N 44°24' E 008°53'0 0.0
2017-Aug-17 02:00N 44°24' E 008°53'0 0.0
2017-Aug-17 01:27N 44°24' E 008°53'0 0.0
2017-Aug-17 01:00N 44°24' E 008°53'0 0.0
2017-Aug-17 00:30N 44°24' E 008°53'0 0.0
2017-Aug-17 00:00N 44°24' E 008°53'0 0.0
2017-Aug-16 23:27N 44°24' E 008°53'0 0.0
2017-Aug-16 22:57N 44°24' E 008°53'0 0.0
2017-Aug-16 22:30N 44°24' E 008°53'0 0.0
2017-Aug-16 21:57N 44°24' E 008°53'0 0.0
2017-Aug-16 21:30N 44°24' E 008°53'0 0.0
2017-Aug-16 21:00N 44°24' E 008°53'0 0.0
2017-Aug-16 20:30N 44°24' E 008°53'0 0.0
2017-Aug-16 20:00N 44°24' E 008°53'0 0.0
2017-Aug-16 19:27N 44°24' E 008°53'0 0.0
2017-Aug-16 19:00N 44°24' E 008°53'0 0.0
2017-Aug-16 18:30N 44°24' E 008°53'0 0.0
2017-Aug-16 18:00N 44°24' E 008°53'0 0.0
2017-Aug-16 17:30N 44°24' E 008°53'0 0.0
2017-Aug-16 17:00N 44°24' E 008°53'0 0.0
2017-Aug-16 16:30N 44°24' E 008°53'0 0.0
2017-Aug-16 16:00N 44°24' E 008°53'0 0.0
2017-Aug-16 15:30N 44°24' E 008°53'0 0.0
2017-Aug-16 15:00N 44°24' E 008°53'0 0.0
2017-Aug-16 14:24N 44°24' E 008°53'0 0.0
2017-Aug-16 14:00N 44°24' E 008°53'0 0.0
2017-Aug-16 13:30N 44°24' E 008°53'0 0.0
2017-Aug-16 13:00N 44°24' E 008°53'0 0.0
2017-Aug-16 12:30N 44°24' E 008°53'0 0.0
2017-Aug-16 12:00N 44°24' E 008°53'0 0.0
2017-Aug-16 11:30N 44°24' E 008°53'0 0.0
2017-Aug-16 11:00N 44°24' E 008°53'0 0.0
2017-Aug-16 10:30N 44°24' E 008°53'0 0.0
2017-Aug-16 09:57N 44°24' E 008°53'0 0.0
2017-Aug-16 09:30N 44°24' E 008°53'0 0.0
2017-Aug-16 08:57N 44°24' E 008°53'0 0.0
2017-Aug-16 08:27N 44°24' E 008°53'0 0.0
2017-Aug-16 08:00N 44°24' E 008°53'0 0.0
2017-Aug-16 07:30N 44°24' E 008°53'0 0.0
2017-Aug-16 07:00N 44°24' E 008°53'0 0.0
2017-Aug-16 06:27N 44°24' E 008°53'0 0.0
2017-Aug-16 06:00N 44°24' E 008°53'0 0.0
2017-Aug-16 05:30N 44°24' E 008°53'0 0.0
2017-Aug-16 05:00N 44°24' E 008°53'0 0.0
2017-Aug-16 04:30N 44°24' E 008°53'0 0.0
2017-Aug-16 04:00N 44°24' E 008°53'0 0.0
2017-Aug-16 03:30N 44°24' E 008°53'0 0.3
2017-Aug-16 03:00N 44°24' E 008°53'0 0.4
2017-Aug-16 02:28N 44°24' E 008°53'0 0.0
2017-Aug-16 01:58N 44°24' E 008°53'0 0.0
2017-Aug-16 01:25N 44°24' E 008°53'0 0.0
2017-Aug-16 00:58N 44°24' E 008°53'0 0.0
2017-Aug-16 00:28N 44°24' E 008°53'0 0.0
2017-Aug-15 23:58N 44°24' E 008°53'0 0.0
2017-Aug-15 23:28N 44°24' E 008°53'0 0.0
2017-Aug-15 22:58N 44°24' E 008°53'0 0.0
2017-Aug-15 22:28N 44°24' E 008°53'0 0.0
2017-Aug-15 21:58N 44°24' E 008°53'0 0.0
2017-Aug-15 21:28N 44°24' E 008°53'0 0.0
2017-Aug-15 20:58N 44°24' E 008°53'0 0.0
2017-Aug-15 20:28N 44°24' E 008°53'0 0.0
2017-Aug-15 19:58N 44°24' E 008°53'0 0.0
2017-Aug-15 19:28N 44°24' E 008°53'0 0.0
2017-Aug-15 18:58N 44°24' E 008°53'0 0.0
2017-Aug-15 18:28N 44°24' E 008°53'0 0.0
2017-Aug-15 17:58N 44°24' E 008°53'0 0.0
2017-Aug-15 17:28N 44°24' E 008°53'0 0.0
2017-Aug-15 16:58N 44°24' E 008°53'0 0.0
2017-Aug-15 16:25N 44°24' E 008°53'0 0.0
2017-Aug-15 15:58N 44°24' E 008°53'0 0.0
2017-Aug-15 15:25N 44°24' E 008°53'0 0.0
2017-Aug-15 14:52N 44°24' E 008°53'0 0.0
2017-Aug-15 14:22N 44°24' E 008°53'0 0.0
2017-Aug-15 13:58N 44°24' E 008°53'0 0.0
2017-Aug-15 13:25N 44°24' E 008°53'0 0.0
2017-Aug-15 12:55N 44°24' E 008°53'0 0.0
2017-Aug-15 12:28N 44°24' E 008°53'0 0.0
2017-Aug-15 11:55N 44°24' E 008°53'0 0.0
2017-Aug-15 11:28N 44°24' E 008°53'0 0.0
2017-Aug-15 10:55N 44°24' E 008°53'0 0.0
2017-Aug-15 10:25N 44°24' E 008°53'0 0.0
2017-Aug-15 09:58N 44°24' E 008°53'0 0.0
2017-Aug-15 09:28N 44°24' E 008°53'0 0.0
2017-Aug-15 08:58N 44°24' E 008°53'0 0.0
2017-Aug-15 08:28N 44°24' E 008°53'0 0.0
2017-Aug-15 07:58N 44°24' E 008°53'0 0.0
2017-Aug-15 07:28N 44°24' E 008°53'0 0.0
2017-Aug-15 06:58N 44°24' E 008°53'0 0.0
2017-Aug-15 06:28N 44°24' E 008°53'0 0.0
2017-Aug-15 05:58N 44°24' E 008°53'0 0.0
2017-Aug-15 05:28N 44°24' E 008°53'0 0.0
2017-Aug-15 04:58N 44°24' E 008°53'0 0.0
2017-Aug-15 04:28N 44°24' E 008°53'0 0.0
2017-Aug-15 03:58N 44°24' E 008°53'0 0.0
2017-Aug-15 03:28N 44°24' E 008°53'0 0.0
2017-Aug-15 02:58N 44°24' E 008°53'0 0.0
2017-Aug-15 02:25N 44°24' E 008°53'0 0.0
2017-Aug-15 01:58N 44°24' E 008°53'0 0.0
2017-Aug-15 01:28N 44°24' E 008°53'0 0.0
2017-Aug-15 00:58N 44°24' E 008°53'0 0.0
2017-Aug-15 00:22N 44°24' E 008°53'0 0.0
2017-Aug-14 23:58N 44°24' E 008°53'0 0.0
2017-Aug-14 23:25N 44°24' E 008°53'0 0.0
2017-Aug-14 22:55N 44°24' E 008°53'0 0.0
2017-Aug-14 22:28N 44°24' E 008°53'0 0.0
2017-Aug-14 21:58N 44°24' E 008°53'0 0.0
2017-Aug-14 21:28N 44°24' E 008°53'0 0.0
2017-Aug-14 20:55N 44°24' E 008°53'0 0.0
2017-Aug-14 20:28N 44°24' E 008°53'0 0.0
2017-Aug-14 19:58N 44°24' E 008°53'0 0.0
2017-Aug-14 19:28N 44°24' E 008°53'0 0.0
2017-Aug-14 18:58N 44°24' E 008°53'0 0.0
2017-Aug-14 18:28N 44°24' E 008°53'0 0.0
2017-Aug-14 17:58N 44°24' E 008°53'0 0.0
2017-Aug-14 17:28N 44°24' E 008°53'0 0.0
2017-Aug-14 16:58N 44°24' E 008°53'0 0.0
2017-Aug-14 16:28N 44°24' E 008°53'0 0.0
2017-Aug-14 15:58N 44°24' E 008°53'0 0.0
2017-Aug-14 15:28N 44°24' E 008°53'0 0.0
2017-Aug-14 14:58N 44°24' E 008°53'0 0.0
2017-Aug-14 14:28N 44°24' E 008°53'0 0.0
2017-Aug-14 13:58N 44°24' E 008°53'0 0.0
2017-Aug-14 13:28N 44°24' E 008°53'0 0.0
2017-Aug-14 12:58N 44°24' E 008°53'0 0.0
2017-Aug-14 12:28N 44°24' E 008°53'0 0.0
2017-Aug-14 11:58N 44°24' E 008°53'0 0.0
2017-Aug-14 11:30N 44°24' E 008°53'2 3.1
2017-Aug-14 11:00N 44°24' E 008°55'611.3
2017-Aug-14 10:30N 44°19' E 008°59'815.3
2017-Aug-14 10:00N 44°12' E 008°56'815.3
2017-Aug-14 09:30N 44°04' E 008°54'815.5
2017-Aug-14 09:00N 43°56' E 008°51'815.6
2017-Aug-14 08:30N 43°49' E 008°49'815.8
2017-Aug-14 08:00N 43°41' E 008°47'815.7
2017-Aug-14 07:30N 43°33' E 008°44'815.8
2017-Aug-14 07:00N 43°26' E 008°42'815.7
2017-Aug-14 06:30N 43°18' E 008°40'815.6
2017-Aug-14 06:00N 43°10' E 008°38'815.4
2017-Aug-14 05:30N 43°03' E 008°36'915.5
2017-Aug-14 04:56N 42°54' E 008°33'1215.8
2017-Aug-14 04:11N 42°43' E 008°29'10611.0
2017-Aug-13 18:33N 40°56' E 008°24'116.3
2017-Aug-13 18:29N 40°57' E 008°25'  
Track history (hours):
 
Tides and Currents Weather Stations Pressure Air Temp Water Temp Dewpoint Dewpoint Depression Visibility Wind Speed Wind Dir Waves Ship Positions

Norse Mersey

Operator: Norse Merchant Ferries

Last reported at 2017-Aug-23 13:30 UTC. Time now 2017-Aug-23 13:43 UTC.
Position N 39°12' E 009°07'.

Length 175 m; draft 5.6 m.

Type: Ship (hazmat cat A). MMSI: 247026000.

Date/timePositionNaut miles runAvg speedWind from/ knotsBaromVisibWave heightAir tempDewpointWater temp
2017-Aug-23 13:30N 39°12' E 009°07'4 7.8
2017-Aug-23 12:59N 39°09' E 009°09'815.6
2017-Aug-23 12:29N 39°05' E 009°18'13213.5
2017-Aug-23 02:43N 41°14' E 009°55'415.8
2017-Aug-23 02:29N 41°17' E 009°55'1715.7
2017-Aug-23 01:23N 41°35' E 009°54'1816.2
2017-Aug-23 00:16N 41°53' E 009°54'715.7
2017-Aug-22 23:49N 41°60' E 009°55'515.8
2017-Aug-22 23:30N 42°05' E 009°55'815.8
2017-Aug-22 23:00N 42°13' E 009°54'915.8
2017-Aug-22 22:26N 42°22' E 009°54'715.6
2017-Aug-22 22:00N 42°28' E 009°55'916.0
2017-Aug-22 21:28N 42°37' E 009°55'716.0
2017-Aug-22 21:00N 42°44' E 009°55'816.1
2017-Aug-22 20:30N 42°52' E 009°58'815.9
2017-Aug-22 20:00N 42°60' E 010°00'815.8
2017-Aug-22 19:30N 43°08' E 010°03'815.9
2017-Aug-22 19:00N 43°15' E 010°06'815.7
2017-Aug-22 18:30N 43°23' E 010°08'815.8
2017-Aug-22 18:00N 43°30' E 010°11'5 9.9
2017-Aug-22 17:31N 43°33' E 010°17'3 4.7
2017-Aug-22 16:59N 43°35' E 010°19'0 0.1
2017-Aug-22 16:29N 43°35' E 010°19'0 0.0
2017-Aug-22 15:59N 43°35' E 010°19'0 0.0
2017-Aug-22 15:26N 43°35' E 010°19'0 0.0
2017-Aug-22 14:47N 43°35' E 010°19'0 0.0
2017-Aug-22 14:29N 43°35' E 010°19'0 0.0
2017-Aug-22 13:56N 43°35' E 010°19'0 0.0
2017-Aug-22 13:29N 43°35' E 010°19'0 0.0
2017-Aug-22 12:59N 43°35' E 010°19'0 0.0
2017-Aug-22 12:26N 43°35' E 010°19'0 0.0
2017-Aug-22 11:59N 43°35' E 010°19'0 0.0
2017-Aug-22 11:26N 43°35' E 010°19'0 0.0
2017-Aug-22 11:00N 43°35' E 010°19'1 1.8
2017-Aug-22 10:30N 43°34' E 010°18'4 7.0
2017-Aug-22 10:00N 43°31' E 010°15'4 8.6
2017-Aug-22 09:30N 43°30' E 010°10'4 8.7
2017-Aug-22 09:01N 43°30' E 010°04'612.9
2017-Aug-22 08:30N 43°31' E 009°55'713.4
2017-Aug-22 08:00N 43°35' E 009°48'713.4
2017-Aug-22 07:30N 43°40' E 009°41'713.6
2017-Aug-22 07:00N 43°45' E 009°35'713.5
2017-Aug-22 06:30N 43°50' E 009°29'713.2
2017-Aug-22 06:00N 43°55' E 009°23'612.8
2017-Aug-22 05:30N 43°60' E 009°18'613.0
2017-Aug-22 05:00N 44°05' E 009°12'713.2
2017-Aug-22 04:30N 44°10' E 009°07'713.2
2017-Aug-22 04:00N 44°16' E 009°02'713.2
2017-Aug-22 03:30N 44°22' E 008°57'3 6.9
2017-Aug-22 03:00N 44°24' E 008°54'0 0.8
2017-Aug-22 02:27N 44°24' E 008°53'0 0.0
2017-Aug-22 01:57N 44°24' E 008°53'0 0.0
2017-Aug-22 01:27N 44°24' E 008°53'0 0.0
2017-Aug-22 00:57N 44°24' E 008°53'0 0.0
2017-Aug-22 00:30N 44°24' E 008°53'0 0.0
2017-Aug-22 00:00N 44°24' E 008°53'0 0.0
2017-Aug-21 23:30N 44°24' E 008°53'0 0.0
2017-Aug-21 23:00N 44°24' E 008°53'0 0.0
2017-Aug-21 22:30N 44°24' E 008°53'0 0.0
2017-Aug-21 22:00N 44°24' E 008°53'0 0.0
2017-Aug-21 21:30N 44°24' E 008°53'0 0.0
2017-Aug-21 21:00N 44°24' E 008°53'0 0.0
2017-Aug-21 20:30N 44°24' E 008°53'0 0.0
2017-Aug-21 20:00N 44°24' E 008°53'0 0.0
2017-Aug-21 19:30N 44°24' E 008°53'0 0.0
2017-Aug-21 19:00N 44°24' E 008°53'0 0.0
2017-Aug-21 18:27N 44°24' E 008°53'0 0.0
2017-Aug-21 17:57N 44°24' E 008°53'0 0.0
2017-Aug-21 17:24N 44°24' E 008°53'0 0.0
2017-Aug-21 16:57N 44°24' E 008°53'0 0.0
2017-Aug-21 16:24N 44°24' E 008°53'0 0.0
2017-Aug-21 16:00N 44°24' E 008°53'0 0.0
2017-Aug-21 15:27N 44°24' E 008°53'0 0.0
2017-Aug-21 14:57N 44°24' E 008°53'0 0.0
2017-Aug-21 14:27N 44°24' E 008°53'0 0.0
2017-Aug-21 13:57N 44°24' E 008°53'0 0.0
2017-Aug-21 13:27N 44°24' E 008°53'0 0.0
2017-Aug-21 12:57N 44°24' E 008°53'0 0.0
2017-Aug-21 12:27N 44°24' E 008°53'0 0.0
2017-Aug-21 11:57N 44°24' E 008°53'0 0.0
2017-Aug-21 11:27N 44°24' E 008°53'0 0.0
2017-Aug-21 11:00N 44°24' E 008°53'0 0.0
2017-Aug-21 10:30N 44°24' E 008°53'0 0.0
2017-Aug-21 10:00N 44°24' E 008°53'0 0.0
2017-Aug-21 09:30N 44°24' E 008°53'0 0.0
2017-Aug-21 09:00N 44°24' E 008°53'0 0.0
2017-Aug-21 08:30N 44°24' E 008°53'0 0.0
2017-Aug-21 08:00N 44°24' E 008°53'0 0.0
2017-Aug-21 07:30N 44°24' E 008°53'0 0.0
2017-Aug-21 07:00N 44°24' E 008°53'0 0.4
2017-Aug-21 06:30N 44°24' E 008°53'0 0.0
2017-Aug-21 06:00N 44°24' E 008°53'0 0.0
2017-Aug-21 05:30N 44°24' E 008°53'0 0.0
2017-Aug-21 05:00N 44°24' E 008°53'0 0.0
2017-Aug-21 04:30N 44°24' E 008°53'0 0.0
2017-Aug-21 04:00N 44°24' E 008°53'0 0.0
2017-Aug-21 03:30N 44°24' E 008°53'0 0.0
2017-Aug-21 02:54N 44°24' E 008°53'0 0.0
2017-Aug-21 02:30N 44°24' E 008°53'0 0.0
2017-Aug-21 01:54N 44°24' E 008°53'0 0.0
2017-Aug-21 01:30N 44°24' E 008°53'0 0.0
2017-Aug-21 01:00N 44°24' E 008°53'0 0.0
2017-Aug-21 00:30N 44°24' E 008°53'0 0.0
2017-Aug-21 00:00N 44°24' E 008°53'0 0.0
2017-Aug-20 23:27N 44°24' E 008°53'0 0.0
2017-Aug-20 23:00N 44°24' E 008°53'0 0.0
2017-Aug-20 22:30N 44°24' E 008°53'0 0.0
2017-Aug-20 21:57N 44°24' E 008°53'0 0.0
2017-Aug-20 21:30N 44°24' E 008°53'0 0.0
2017-Aug-20 21:00N 44°24' E 008°53'0 0.0
2017-Aug-20 20:30N 44°24' E 008°53'0 0.0
2017-Aug-20 20:00N 44°24' E 008°53'0 0.0
2017-Aug-20 19:30N 44°24' E 008°53'0 0.0
2017-Aug-20 19:00N 44°24' E 008°53'0 0.0
2017-Aug-20 18:30N 44°24' E 008°53'0 0.0
2017-Aug-20 18:00N 44°24' E 008°53'0 0.0
2017-Aug-20 17:30N 44°24' E 008°53'0 0.0
2017-Aug-20 17:00N 44°24' E 008°53'0 0.0
2017-Aug-20 16:30N 44°24' E 008°53'0 0.0
2017-Aug-20 16:00N 44°24' E 008°53'0 0.0
2017-Aug-20 15:30N 44°24' E 008°53'0 0.0
2017-Aug-20 15:00N 44°24' E 008°53'0 0.0
2017-Aug-20 14:30N 44°24' E 008°53'0 0.0
2017-Aug-20 14:00N 44°24' E 008°53'0 0.0
2017-Aug-20 13:30N 44°24' E 008°53'0 0.0
2017-Aug-20 13:00N 44°24' E 008°53'0 0.0
2017-Aug-20 12:30N 44°24' E 008°53'0 0.0
2017-Aug-20 12:00N 44°24' E 008°53'0 0.0
2017-Aug-20 11:30N 44°24' E 008°53'0 0.0
2017-Aug-20 11:00N 44°24' E 008°53'0 0.0
2017-Aug-20 10:30N 44°24' E 008°53'0 0.0
2017-Aug-20 10:00N 44°24' E 008°53'0 0.0
2017-Aug-20 09:30N 44°24' E 008°53'0 0.0
2017-Aug-20 09:00N 44°24' E 008°53'0 0.0
2017-Aug-20 08:27N 44°24' E 008°53'0 0.0
2017-Aug-20 08:00N 44°24' E 008°53'0 0.0
2017-Aug-20 07:27N 44°24' E 008°53'0 0.0
2017-Aug-20 07:00N 44°24' E 008°53'0 0.0
2017-Aug-20 06:30N 44°24' E 008°53'0 0.0
2017-Aug-20 06:00N 44°24' E 008°53'0 0.0
2017-Aug-20 05:30N 44°24' E 008°53'0 0.0
2017-Aug-20 05:00N 44°24' E 008°53'0 0.0
2017-Aug-20 04:30N 44°24' E 008°53'0 0.0
2017-Aug-20 04:00N 44°24' E 008°53'0 0.0
2017-Aug-20 03:27N 44°24' E 008°53'0 0.0
2017-Aug-20 03:00N 44°24' E 008°53'0 0.0
2017-Aug-20 02:30N 44°24' E 008°53'0 0.0
2017-Aug-20 02:00N 44°24' E 008°53'0 0.0
2017-Aug-20 01:30N 44°24' E 008°53'0 0.0
2017-Aug-20 01:00N 44°24' E 008°53'0 0.0
2017-Aug-20 00:30N 44°24' E 008°53'0 0.0
2017-Aug-19 23:57N 44°24' E 008°53'0 0.0
2017-Aug-19 23:30N 44°24' E 008°53'0 0.0
2017-Aug-19 22:57N 44°24' E 008°53'0 0.0
2017-Aug-19 22:24N 44°24' E 008°53'0 0.0
2017-Aug-19 22:00N 44°24' E 008°53'0 0.0
2017-Aug-19 21:27N 44°24' E 008°53'0 0.0
2017-Aug-19 21:00N 44°24' E 008°53'0 0.0
2017-Aug-19 20:27N 44°24' E 008°53'0 0.0
2017-Aug-19 20:00N 44°24' E 008°53'0 0.0
2017-Aug-19 19:30N 44°24' E 008°53'0 0.0
2017-Aug-19 18:57N 44°24' E 008°53'0 0.0
2017-Aug-19 18:30N 44°24' E 008°53'0 0.0
2017-Aug-19 17:57N 44°24' E 008°53'0 0.0
2017-Aug-19 17:27N 44°24' E 008°53'0 0.0
2017-Aug-19 17:00N 44°24' E 008°53'0 0.0
2017-Aug-19 16:30N 44°24' E 008°53'0 0.0
2017-Aug-19 16:00N 44°24' E 008°53'0 0.0
2017-Aug-19 15:30N 44°24' E 008°53'0 0.0
2017-Aug-19 15:00N 44°24' E 008°53'0 0.0
2017-Aug-19 14:00N 44°24' E 008°53'0 0.0
2017-Aug-19 13:30N 44°24' E 008°53'0 0.0
2017-Aug-19 13:00N 44°24' E 008°53'0 0.0
2017-Aug-19 12:30N 44°24' E 008°53'0 0.0
2017-Aug-19 12:00N 44°24' E 008°53'0 0.0
2017-Aug-19 11:30N 44°24' E 008°53'0 0.0
2017-Aug-19 11:00N 44°24' E 008°53'0 0.0
2017-Aug-19 10:30N 44°24' E 008°53'0 0.0
2017-Aug-19 10:00N 44°24' E 008°53'0 0.0
2017-Aug-19 09:27N 44°24' E 008°53'0 0.0
2017-Aug-19 08:54N 44°24' E 008°53'0 0.0
2017-Aug-19 08:27N 44°24' E 008°53'0 0.0
2017-Aug-19 08:00N 44°24' E 008°53'0 0.0
2017-Aug-19 07:30N 44°24' E 008°53'0 0.0
2017-Aug-19 06:57N 44°24' E 008°53'0 0.0
2017-Aug-19 06:30N 44°24' E 008°53'0 0.0
2017-Aug-19 05:57N 44°24' E 008°53'0 0.0
2017-Aug-19 05:27N 44°24' E 008°53'0 0.0
2017-Aug-19 04:57N 44°24' E 008°53'0 0.0
2017-Aug-19 04:27N 44°24' E 008°53'0 0.0
2017-Aug-19 04:00N 44°24' E 008°53'0 0.0
2017-Aug-19 03:27N 44°24' E 008°53'0 0.0
2017-Aug-19 03:00N 44°24' E 008°53'0 0.0
2017-Aug-19 02:30N 44°24' E 008°53'0 0.0
2017-Aug-19 02:00N 44°24' E 008°53'0 0.0
2017-Aug-19 01:30N 44°24' E 008°53'0 0.0
2017-Aug-19 00:57N 44°24' E 008°53'0 0.0
2017-Aug-19 00:30N 44°24' E 008°53'0 0.0
2017-Aug-19 00:00N 44°24' E 008°53'0 0.0
2017-Aug-18 23:30N 44°24' E 008°53'0 0.0
2017-Aug-18 23:00N 44°24' E 008°53'0 0.0
2017-Aug-18 22:24N 44°24' E 008°53'0 0.0
2017-Aug-18 22:00N 44°24' E 008°53'0 0.0
2017-Aug-18 21:30N 44°24' E 008°53'0 0.0
2017-Aug-18 21:00N 44°24' E 008°53'0 0.0
2017-Aug-18 20:30N 44°24' E 008°53'0 0.0
2017-Aug-18 20:00N 44°24' E 008°53'0 0.0
2017-Aug-18 19:30N 44°24' E 008°53'0 0.0
2017-Aug-18 19:00N 44°24' E 008°53'0 0.0
2017-Aug-18 18:30N 44°24' E 008°53'0 0.0
2017-Aug-18 18:00N 44°24' E 008°53'0 0.0
2017-Aug-18 17:30N 44°24' E 008°53'0 0.0
2017-Aug-18 17:00N 44°24' E 008°53'0 0.0
2017-Aug-18 16:30N 44°24' E 008°53'0 0.0
2017-Aug-18 16:00N 44°24' E 008°53'0 0.0
2017-Aug-18 15:27N 44°24' E 008°53'0 0.0
2017-Aug-18 15:00N 44°24' E 008°53'0 0.0
2017-Aug-18 14:27N 44°24' E 008°53'0 0.0
2017-Aug-18 13:30N 44°24' E 008°53'0 0.0
2017-Aug-18 13:00N 44°24' E 008°53'0 0.0
2017-Aug-18 12:30N 44°24' E 008°53'0 0.0
2017-Aug-18 11:57N 44°24' E 008°53'0 0.0
2017-Aug-18 11:30N 44°24' E 008°53'0 0.0
2017-Aug-18 11:00N 44°24' E 008°53'0 0.0
2017-Aug-18 10:30N 44°24' E 008°53'0 0.0
2017-Aug-18 10:00N 44°24' E 008°53'0 0.0
2017-Aug-18 09:30N 44°24' E 008°53'0 0.0
2017-Aug-18 09:00N 44°24' E 008°53'0 0.0
2017-Aug-18 08:30N 44°24' E 008°53'0 0.0
2017-Aug-18 08:00N 44°24' E 008°53'0 0.0
2017-Aug-18 07:30N 44°24' E 008°53'0 0.0
2017-Aug-18 07:00N 44°24' E 008°53'0 0.0
2017-Aug-18 06:30N 44°24' E 008°53'0 0.0
2017-Aug-18 06:00N 44°24' E 008°53'0 0.0
2017-Aug-18 05:27N 44°24' E 008°53'0 0.0
2017-Aug-18 05:00N 44°24' E 008°53'0 0.0
2017-Aug-18 04:27N 44°24' E 008°53'0 0.0
2017-Aug-18 04:00N 44°24' E 008°53'0 0.0
2017-Aug-18 03:30N 44°24' E 008°53'0 0.0
2017-Aug-18 03:00N 44°24' E 008°53'0 0.0
2017-Aug-18 02:27N 44°24' E 008°53'0 0.0
2017-Aug-18 02:00N 44°24' E 008°53'0 0.0
2017-Aug-18 01:30N 44°24' E 008°53'0 0.0
2017-Aug-18 01:00N 44°24' E 008°53'0 0.0
2017-Aug-18 00:30N 44°24' E 008°53'0 0.0
2017-Aug-17 23:57N 44°24' E 008°53'0 0.0
2017-Aug-17 23:30N 44°24' E 008°53'0 0.0
2017-Aug-17 23:00N 44°24' E 008°53'0 0.0
2017-Aug-17 22:30N 44°24' E 008°53'0 0.0
2017-Aug-17 22:00N 44°24' E 008°53'0 0.0
2017-Aug-17 21:30N 44°24' E 008°53'0 0.0
2017-Aug-17 21:00N 44°24' E 008°53'0 0.0
2017-Aug-17 20:30N 44°24' E 008°53'0 0.0
2017-Aug-17 20:00N 44°24' E 008°53'0 0.0
2017-Aug-17 19:30N 44°24' E 008°53'0 0.0
2017-Aug-17 19:00N 44°24' E 008°53'0 0.0
2017-Aug-17 18:30N 44°24' E 008°53'0 0.0
2017-Aug-17 18:00N 44°24' E 008°53'0 0.0
2017-Aug-17 17:30N 44°24' E 008°53'0 0.0
2017-Aug-17 17:00N 44°24' E 008°53'0 0.0
2017-Aug-17 16:30N 44°24' E 008°53'0 0.0
2017-Aug-17 16:00N 44°24' E 008°53'0 0.0
2017-Aug-17 15:30N 44°24' E 008°53'0 0.0
2017-Aug-17 15:00N 44°24' E 008°53'0 0.0
2017-Aug-17 14:30N 44°24' E 008°53'0 0.0
2017-Aug-17 14:00N 44°24' E 008°53'0 0.0
2017-Aug-17 13:30N 44°24' E 008°53'0 0.0
2017-Aug-17 12:57N 44°24' E 008°53'0 0.0
2017-Aug-17 12:30N 44°24' E 008°53'0 0.0
2017-Aug-17 12:00N 44°24' E 008°53'0 0.0
2017-Aug-17 11:30N 44°24' E 008°53'0 0.0
2017-Aug-17 11:00N 44°24' E 008°53'0 0.0
2017-Aug-17 10:27N 44°24' E 008°53'0 0.0
2017-Aug-17 10:00N 44°24' E 008°53'0 0.0
2017-Aug-17 09:30N 44°24' E 008°53'0 0.0
2017-Aug-17 08:57N 44°24' E 008°53'0 0.0
2017-Aug-17 08:30N 44°24' E 008°53'0 0.0
2017-Aug-17 08:00N 44°24' E 008°53'0 0.0
2017-Aug-17 07:30N 44°24' E 008°53'0 0.0
2017-Aug-17 07:00N 44°24' E 008°53'0 0.0
2017-Aug-17 06:30N 44°24' E 008°53'0 0.0
2017-Aug-17 06:00N 44°24' E 008°53'0 0.0
2017-Aug-17 05:30N 44°24' E 008°53'0 0.0
2017-Aug-17 05:00N 44°24' E 008°53'0 0.0
2017-Aug-17 04:30N 44°24' E 008°53'0 0.0
2017-Aug-17 04:00N 44°24' E 008°53'0 0.0
2017-Aug-17 03:30N 44°24' E 008°53'0 0.0
2017-Aug-17 03:00N 44°24' E 008°53'0 0.0
2017-Aug-17 02:30N 44°24' E 008°53'0 0.0
2017-Aug-17 02:00N 44°24' E 008°53'0 0.0
2017-Aug-17 01:27N 44°24' E 008°53'0 0.0
2017-Aug-17 01:00N 44°24' E 008°53'0 0.0
2017-Aug-17 00:30N 44°24' E 008°53'0 0.0
2017-Aug-17 00:00N 44°24' E 008°53'0 0.0
2017-Aug-16 23:27N 44°24' E 008°53'0 0.0
2017-Aug-16 22:57N 44°24' E 008°53'0 0.0
2017-Aug-16 22:30N 44°24' E 008°53'0 0.0
2017-Aug-16 21:57N 44°24' E 008°53'0 0.0
2017-Aug-16 21:30N 44°24' E 008°53'0 0.0
2017-Aug-16 21:00N 44°24' E 008°53'0 0.0
2017-Aug-16 20:30N 44°24' E 008°53'0 0.0
2017-Aug-16 20:00N 44°24' E 008°53'0 0.0
2017-Aug-16 19:27N 44°24' E 008°53'0 0.0
2017-Aug-16 19:00N 44°24' E 008°53'0 0.0
2017-Aug-16 18:30N 44°24' E 008°53'0 0.0
2017-Aug-16 18:00N 44°24' E 008°53'0 0.0
2017-Aug-16 17:30N 44°24' E 008°53'0 0.0
2017-Aug-16 17:00N 44°24' E 008°53'0 0.0
2017-Aug-16 16:30N 44°24' E 008°53'0 0.0
2017-Aug-16 16:00N 44°24' E 008°53'0 0.0
2017-Aug-16 15:30N 44°24' E 008°53'0 0.0
2017-Aug-16 15:00N 44°24' E 008°53'0 0.0
2017-Aug-16 14:24N 44°24' E 008°53'0 0.0
2017-Aug-16 14:00N 44°24' E 008°53'0 0.0
2017-Aug-16 13:30N 44°24' E 008°53'0 0.0
2017-Aug-16 13:00N 44°24' E 008°53'0 0.0
2017-Aug-16 12:30N 44°24' E 008°53'0 0.0
2017-Aug-16 12:00N 44°24' E 008°53'0 0.0
2017-Aug-16 11:30N 44°24' E 008°53'0 0.0
2017-Aug-16 11:00N 44°24' E 008°53'0 0.0
2017-Aug-16 10:30N 44°24' E 008°53'0 0.0
2017-Aug-16 09:57N 44°24' E 008°53'0 0.0
2017-Aug-16 09:30N 44°24' E 008°53'0 0.0
2017-Aug-16 08:57N 44°24' E 008°53'0 0.0
2017-Aug-16 08:27N 44°24' E 008°53'0 0.0
2017-Aug-16 08:00N 44°24' E 008°53'0 0.0
2017-Aug-16 07:30N 44°24' E 008°53'0 0.0
2017-Aug-16 07:00N 44°24' E 008°53'0 0.0
2017-Aug-16 06:27N 44°24' E 008°53'0 0.0
2017-Aug-16 06:00N 44°24' E 008°53'0 0.0
2017-Aug-16 05:30N 44°24' E 008°53'0 0.0
2017-Aug-16 05:00N 44°24' E 008°53'0 0.0
2017-Aug-16 04:30N 44°24' E 008°53'0 0.0
2017-Aug-16 04:00N 44°24' E 008°53'0 0.0
2017-Aug-16 03:30N 44°24' E 008°53'0 0.3
2017-Aug-16 03:00N 44°24' E 008°53'0 0.4
2017-Aug-16 02:28N 44°24' E 008°53'0 0.0
2017-Aug-16 01:58N 44°24' E 008°53'0 0.0
2017-Aug-16 01:25N 44°24' E 008°53'0 0.0
2017-Aug-16 00:58N 44°24' E 008°53'0 0.0
2017-Aug-16 00:28N 44°24' E 008°53'0 0.0
2017-Aug-15 23:58N 44°24' E 008°53'0 0.0
2017-Aug-15 23:28N 44°24' E 008°53'0 0.0
2017-Aug-15 22:58N 44°24' E 008°53'0 0.0
2017-Aug-15 22:28N 44°24' E 008°53'0 0.0
2017-Aug-15 21:58N 44°24' E 008°53'0 0.0
2017-Aug-15 21:28N 44°24' E 008°53'0 0.0
2017-Aug-15 20:58N 44°24' E 008°53'0 0.0
2017-Aug-15 20:28N 44°24' E 008°53'0 0.0
2017-Aug-15 19:58N 44°24' E 008°53'0 0.0
2017-Aug-15 19:28N 44°24' E 008°53'0 0.0
2017-Aug-15 18:58N 44°24' E 008°53'0 0.0
2017-Aug-15 18:28N 44°24' E 008°53'0 0.0
2017-Aug-15 17:58N 44°24' E 008°53'0 0.0
2017-Aug-15 17:28N 44°24' E 008°53'0 0.0
2017-Aug-15 16:58N 44°24' E 008°53'0 0.0
2017-Aug-15 16:25N 44°24' E 008°53'0 0.0
2017-Aug-15 15:58N 44°24' E 008°53'0 0.0
2017-Aug-15 15:25N 44°24' E 008°53'0 0.0
2017-Aug-15 14:52N 44°24' E 008°53'0 0.0
2017-Aug-15 14:22N 44°24' E 008°53'0 0.0
2017-Aug-15 13:58N 44°24' E 008°53'0 0.0
2017-Aug-15 13:25N 44°24' E 008°53'0 0.0
2017-Aug-15 12:55N 44°24' E 008°53'0 0.0
2017-Aug-15 12:28N 44°24' E 008°53'0 0.0
2017-Aug-15 11:55N 44°24' E 008°53'0 0.0
2017-Aug-15 11:28N 44°24' E 008°53'0 0.0
2017-Aug-15 10:55N 44°24' E 008°53'0 0.0
2017-Aug-15 10:25N 44°24' E 008°53'0 0.0
2017-Aug-15 09:58N 44°24' E 008°53'0 0.0
2017-Aug-15 09:28N 44°24' E 008°53'0 0.0
2017-Aug-15 08:58N 44°24' E 008°53'0 0.0
2017-Aug-15 08:28N 44°24' E 008°53'0 0.0
2017-Aug-15 07:58N 44°24' E 008°53'0 0.0
2017-Aug-15 07:28N 44°24' E 008°53'0 0.0
2017-Aug-15 06:58N 44°24' E 008°53'0 0.0
2017-Aug-15 06:28N 44°24' E 008°53'0 0.0
2017-Aug-15 05:58N 44°24' E 008°53'0 0.0
2017-Aug-15 05:28N 44°24' E 008°53'0 0.0
2017-Aug-15 04:58N 44°24' E 008°53'0 0.0
2017-Aug-15 04:28N 44°24' E 008°53'0 0.0
2017-Aug-15 03:58N 44°24' E 008°53'0 0.0
2017-Aug-15 03:28N 44°24' E 008°53'0 0.0
2017-Aug-15 02:58N 44°24' E 008°53'0 0.0
2017-Aug-15 02:25N 44°24' E 008°53'0 0.0
2017-Aug-15 01:58N 44°24' E 008°53'0 0.0
2017-Aug-15 01:28N 44°24' E 008°53'0 0.0
2017-Aug-15 00:58N 44°24' E 008°53'0 0.0
2017-Aug-15 00:22N 44°24' E 008°53'0 0.0
2017-Aug-14 23:58N 44°24' E 008°53'0 0.0
2017-Aug-14 23:25N 44°24' E 008°53'0 0.0
2017-Aug-14 22:55N 44°24' E 008°53'0 0.0
2017-Aug-14 22:28N 44°24' E 008°53'0 0.0
2017-Aug-14 21:58N 44°24' E 008°53'0 0.0
2017-Aug-14 21:28N 44°24' E 008°53'0 0.0
2017-Aug-14 20:55N 44°24' E 008°53'0 0.0
2017-Aug-14 20:28N 44°24' E 008°53'0 0.0
2017-Aug-14 19:58N 44°24' E 008°53'0 0.0
2017-Aug-14 19:28N 44°24' E 008°53'0 0.0
2017-Aug-14 18:58N 44°24' E 008°53'0 0.0
2017-Aug-14 18:28N 44°24' E 008°53'0 0.0
2017-Aug-14 17:58N 44°24' E 008°53'0 0.0
2017-Aug-14 17:28N 44°24' E 008°53'0 0.0
2017-Aug-14 16:58N 44°24' E 008°53'0 0.0
2017-Aug-14 16:28N 44°24' E 008°53'0 0.0
2017-Aug-14 15:58N 44°24' E 008°53'0 0.0
2017-Aug-14 15:28N 44°24' E 008°53'0 0.0
2017-Aug-14 14:58N 44°24' E 008°53'0 0.0
2017-Aug-14 14:28N 44°24' E 008°53'0 0.0
2017-Aug-14 13:58N 44°24' E 008°53'0 0.0
2017-Aug-14 13:28N 44°24' E 008°53'0 0.0
2017-Aug-14 12:58N 44°24' E 008°53'0 0.0
2017-Aug-14 12:28N 44°24' E 008°53'0 0.0
2017-Aug-14 11:58N 44°24' E 008°53'0 0.0
2017-Aug-14 11:30N 44°24' E 008°53'2 3.1
2017-Aug-14 11:00N 44°24' E 008°55'611.3
2017-Aug-14 10:30N 44°19' E 008°59'815.3
2017-Aug-14 10:00N 44°12' E 008°56'815.3
2017-Aug-14 09:30N 44°04' E 008°54'815.5
2017-Aug-14 09:00N 43°56' E 008°51'815.6
2017-Aug-14 08:30N 43°49' E 008°49'815.8
2017-Aug-14 08:00N 43°41' E 008°47'815.7
2017-Aug-14 07:30N 43°33' E 008°44'815.8
2017-Aug-14 07:00N 43°26' E 008°42'815.7
2017-Aug-14 06:30N 43°18' E 008°40'815.6
2017-Aug-14 06:00N 43°10' E 008°38'815.4
2017-Aug-14 05:30N 43°03' E 008°36'915.5
2017-Aug-14 04:56N 42°54' E 008°33'1215.8
2017-Aug-14 04:11N 42°43' E 008°29'10611.0
2017-Aug-13 18:33N 40°56' E 008°24'116.3
2017-Aug-13 18:29N 40°57' E 008°25'  

Dump ship's entire track history